createdAt,value
2017-08-16T00:01:10.925Z,30.20
2017-08-16T00:03:38.519Z,29.87
2017-08-16T00:06:06.114Z,27.47
2017-08-16T00:08:33.675Z,22.73
2017-08-16T00:11:01.282Z,26.27
2017-08-16T00:13:28.844Z,23.53
2017-08-16T00:15:56.408Z,23.13
2017-08-16T00:18:24.006Z,28.00
2017-08-16T00:20:51.564Z,27.77
2017-08-16T00:23:19.171Z,27.23
2017-08-16T00:25:46.734Z,30.27
2017-08-16T00:28:15.033Z,28.13
2017-08-16T00:30:45.888Z,27.80
2017-08-16T00:33:13.715Z,29.43
2017-08-16T00:38:18.621Z,26.60
2017-08-16T00:40:46.234Z,31.80
2017-08-16T00:43:13.791Z,29.17
2017-08-16T00:45:41.355Z,34.10
2017-08-16T00:48:08.965Z,33.97
2017-08-16T00:50:36.571Z,30.77
2017-08-16T00:53:04.133Z,33.33
2017-08-16T00:55:31.701Z,32.93
2017-08-16T00:57:59.294Z,29.63
2017-08-16T01:00:26.897Z,48.07
2017-08-16T01:02:54.476Z,33.13
2017-08-16T01:05:22.067Z,32.23
2017-08-16T01:07:49.615Z,34.80
2017-08-16T01:10:17.207Z,31.93
2017-08-16T01:12:44.786Z,39.30
2017-08-16T01:15:12.348Z,33.13
2017-08-16T01:17:40.909Z,35.10
2017-08-16T01:20:08.771Z,42.17
2017-08-16T01:22:36.358Z,36.53
2017-08-16T01:25:08.354Z,35.63
2017-08-16T01:30:13.680Z,41.87
2017-08-16T01:32:42.047Z,41.33
2017-08-16T01:35:09.610Z,37.97
2017-08-16T01:37:37.948Z,37.83
2017-08-16T01:40:05.530Z,35.47
2017-08-16T01:42:33.094Z,35.30
2017-08-16T01:45:00.716Z,34.80
2017-08-16T01:47:28.280Z,40.40
2017-08-16T01:49:55.843Z,40.90
2017-08-16T01:52:23.438Z,34.67
2017-08-16T01:54:51.029Z,38.07
2017-08-16T01:57:18.616Z,37.00
2017-08-16T01:59:46.215Z,37.70
2017-08-16T02:02:13.806Z,43.83
2017-08-16T02:04:41.370Z,38.10
2017-08-16T02:07:08.962Z,38.23
2017-08-16T02:09:36.532Z,44.90
2017-08-16T02:12:04.124Z,34.77
2017-08-16T02:14:31.681Z,36.97
2017-08-16T02:16:59.279Z,37.03
2017-08-16T02:19:26.837Z,40.20
2017-08-16T02:21:54.435Z,37.60
2017-08-16T02:24:22.038Z,38.87
2017-08-16T02:26:49.601Z,38.63
2017-08-16T02:29:17.928Z,36.00
2017-08-16T02:31:45.551Z,37.63
2017-08-16T02:34:13.145Z,43.80
2017-08-16T02:36:40.737Z,41.23
2017-08-16T02:39:08.302Z,39.47
2017-08-16T02:41:35.909Z,37.67
2017-08-16T02:44:03.471Z,40.07
2017-08-16T02:46:31.040Z,44.37
2017-08-16T02:48:58.634Z,37.37
2017-08-16T02:51:26.190Z,37.50
2017-08-16T02:53:53.801Z,41.77
2017-08-16T02:56:21.359Z,36.00
2017-08-16T02:58:48.967Z,41.60
2017-08-16T03:01:16.532Z,37.63
2017-08-16T03:03:44.139Z,40.33
2017-08-16T03:06:11.702Z,40.17
2017-08-16T03:08:39.295Z,45.50
2017-08-16T03:11:06.858Z,39.17
2017-08-16T03:13:34.456Z,45.97
2017-08-16T03:16:02.012Z,34.30
2017-08-16T03:18:29.746Z,41.80
2017-08-16T03:20:57.318Z,48.43
2017-08-16T03:23:24.890Z,36.40
2017-08-16T03:25:52.475Z,38.37
2017-08-16T03:28:20.802Z,36.67
2017-08-16T03:30:48.396Z,34.00
2017-08-16T03:33:15.987Z,26.93
2017-08-16T03:35:43.581Z,35.27
2017-08-16T03:38:11.144Z,33.10
2017-08-16T03:40:38.757Z,31.30
2017-08-16T03:43:07.096Z,33.63
2017-08-16T03:45:34.703Z,36.13
2017-08-16T03:48:02.289Z,38.23
2017-08-16T03:50:29.879Z,35.17
2017-08-16T03:52:57.467Z,32.60
2017-08-16T03:55:25.794Z,32.73
2017-08-16T03:57:53.409Z,31.60
2017-08-16T04:00:21.797Z,37.40
2017-08-16T04:02:50.164Z,36.93
2017-08-16T04:05:18.536Z,31.37
2017-08-16T04:07:46.113Z,30.17
2017-08-16T04:10:13.692Z,34.63
2017-08-16T04:12:41.299Z,38.43
2017-08-16T04:15:08.883Z,37.30
2017-08-16T04:17:37.226Z,38.20
2017-08-16T04:20:04.833Z,29.87
2017-08-16T04:22:33.190Z,28.00
2017-08-16T04:25:00.795Z,31.70
2017-08-16T04:27:28.373Z,30.27
2017-08-16T04:29:55.965Z,29.53
2017-08-16T04:32:23.551Z,31.70
2017-08-16T04:34:51.172Z,33.43
2017-08-16T04:37:18.789Z,28.73
2017-08-16T04:39:46.351Z,27.53
2017-08-16T04:42:13.919Z,33.43
2017-08-16T04:44:41.563Z,23.73
2017-08-16T04:47:09.134Z,29.80
2017-08-16T04:49:36.738Z,34.00
2017-08-16T04:52:04.331Z,31.00
2017-08-16T04:54:32.711Z,28.83
2017-08-16T04:57:01.067Z,32.87
2017-08-16T04:59:28.669Z,33.33
2017-08-16T05:01:56.241Z,30.53
2017-08-16T05:04:23.825Z,34.70
2017-08-16T05:06:51.403Z,29.63
2017-08-16T05:09:19.010Z,34.57
2017-08-16T05:11:46.581Z,30.93
2017-08-16T05:14:14.136Z,33.47
2017-08-16T05:16:41.745Z,31.67
2017-08-16T05:19:09.368Z,29.33
2017-08-16T05:21:36.930Z,34.60
2017-08-16T05:24:04.512Z,28.67
2017-08-16T05:26:32.223Z,26.10
2017-08-16T05:29:00.571Z,30.47
2017-08-16T05:31:28.173Z,31.37
2017-08-16T05:33:55.751Z,37.50
2017-08-16T05:36:23.374Z,36.73
2017-08-16T05:38:51.701Z,39.53
2017-08-16T05:41:19.340Z,38.00
2017-08-16T05:43:46.918Z,36.53
2017-08-16T05:46:14.496Z,33.53
2017-08-16T05:48:42.087Z,37.63
2017-08-16T05:51:09.657Z,41.30
2017-08-16T05:53:38.008Z,37.23
2017-08-16T05:56:05.576Z,34.30
2017-08-16T05:58:33.164Z,37.90
2017-08-16T06:01:00.747Z,41.47
2017-08-16T06:03:28.337Z,37.63
2017-08-16T06:05:55.899Z,50.73
2017-08-16T06:08:23.491Z,53.23
2017-08-16T06:10:51.870Z,38.23
2017-08-16T06:13:19.427Z,49.10
2017-08-16T06:15:47.779Z,49.77
2017-08-16T06:18:15.363Z,57.87
2017-08-16T06:20:42.928Z,41.33
2017-08-16T06:23:11.284Z,39.13
2017-08-16T06:25:38.846Z,42.43
2017-08-16T06:28:06.440Z,46.00
2017-08-16T06:30:34.002Z,33.90
2017-08-16T06:33:01.571Z,35.33
2017-08-16T06:35:29.165Z,38.73
2017-08-16T06:37:56.722Z,47.27
2017-08-16T06:40:24.315Z,36.97
2017-08-16T06:42:51.878Z,37.07
2017-08-16T06:45:19.485Z,40.13
2017-08-16T06:47:47.048Z,40.80
2017-08-16T06:50:14.610Z,34.40
2017-08-16T06:52:42.204Z,40.13
2017-08-16T06:55:09.796Z,35.73
2017-08-16T06:57:37.389Z,34.97
2017-08-16T07:00:04.997Z,34.63
2017-08-16T07:02:32.565Z,37.50
2017-08-16T07:05:00.122Z,38.70
2017-08-16T07:07:27.716Z,35.63
2017-08-16T07:09:55.284Z,39.00
2017-08-16T07:12:22.872Z,44.23
2017-08-16T07:14:50.480Z,39.60
2017-08-16T07:17:18.042Z,38.80
2017-08-16T07:19:45.610Z,39.83
2017-08-16T07:22:13.963Z,35.27
2017-08-16T07:24:41.533Z,41.40
2017-08-16T07:27:09.132Z,38.30
2017-08-16T07:29:36.713Z,37.40
2017-08-16T07:32:04.304Z,38.10
2017-08-16T07:34:31.867Z,32.43
2017-08-16T07:37:00.240Z,34.83
2017-08-16T07:39:27.803Z,41.33
2017-08-16T07:41:55.516Z,37.23
2017-08-16T07:44:23.110Z,32.67
2017-08-16T07:46:50.707Z,38.20
2017-08-16T07:49:19.034Z,30.67
2017-08-16T07:51:46.644Z,28.67
2017-08-16T07:54:14.200Z,30.33
2017-08-16T07:56:41.763Z,26.90
2017-08-16T07:59:10.120Z,33.73
2017-08-16T08:01:37.699Z,38.30
2017-08-16T08:04:05.306Z,36.57
2017-08-16T08:06:32.874Z,35.53
2017-08-16T08:09:00.431Z,47.07
2017-08-16T08:11:28.025Z,32.40
2017-08-16T08:13:55.588Z,40.90
2017-08-16T08:16:23.181Z,35.53
2017-08-16T08:18:50.777Z,36.93
2017-08-16T08:21:18.336Z,38.30
2017-08-16T08:23:45.929Z,34.37
2017-08-16T08:26:13.527Z,37.17
2017-08-16T08:28:41.084Z,30.20
2017-08-16T08:31:08.693Z,28.63
2017-08-16T08:33:36.256Z,31.47
2017-08-16T08:36:03.818Z,30.13
2017-08-16T08:38:31.412Z,22.87
2017-08-16T08:40:58.980Z,26.83
2017-08-16T08:43:26.575Z,29.70
2017-08-16T08:45:54.129Z,23.60
2017-08-16T08:48:21.722Z,22.90
2017-08-16T08:50:49.285Z,22.50
2017-08-16T08:53:16.879Z,29.60
2017-08-16T08:55:44.470Z,24.53
2017-08-16T08:58:12.039Z,23.60
2017-08-16T09:00:39.643Z,24.73
2017-08-16T09:03:07.205Z,21.27
2017-08-16T09:05:35.522Z,17.13
2017-08-16T09:08:03.111Z,20.87
2017-08-16T09:10:30.673Z,18.60
2017-08-16T09:12:58.286Z,20.53
2017-08-16T09:15:26.146Z,21.53
2017-08-16T09:17:53.711Z,18.57
2017-08-16T09:20:21.299Z,15.63
2017-08-16T09:22:48.850Z,19.47
2017-08-16T09:25:16.457Z,20.77
2017-08-16T09:27:44.017Z,16.17
2017-08-16T09:30:12.347Z,14.70
2017-08-16T09:32:39.954Z,16.10
2017-08-16T09:35:07.517Z,15.20
2017-08-16T09:37:35.079Z,13.30
2017-08-16T09:40:03.445Z,16.00
2017-08-16T09:42:31.001Z,14.80
2017-08-16T09:44:58.562Z,13.97
2017-08-16T09:47:26.156Z,10.23
2017-08-16T09:49:53.747Z,12.53
2017-08-16T09:52:21.342Z,15.43
2017-08-16T09:54:48.904Z,11.63
2017-08-16T09:57:16.467Z,14.07
2017-08-16T09:59:44.061Z,16.87
2017-08-16T10:02:11.629Z,12.10
2017-08-16T10:04:39.786Z,9.83
2017-08-16T10:07:08.113Z,23.47
2017-08-16T10:09:35.707Z,11.77
2017-08-16T10:12:03.299Z,12.60
2017-08-16T10:14:30.892Z,14.67
2017-08-16T10:16:58.561Z,12.17
2017-08-16T10:19:26.183Z,8.93
2017-08-16T10:21:53.746Z,16.40
2017-08-16T10:24:21.343Z,9.70
2017-08-16T10:26:48.902Z,9.70
2017-08-16T10:29:16.494Z,9.03
2017-08-16T10:31:44.057Z,13.47
2017-08-16T10:34:12.430Z,14.33
2017-08-16T10:36:39.992Z,8.30
2017-08-16T10:39:07.555Z,7.43
2017-08-16T10:41:35.919Z,8.57
2017-08-16T10:44:03.475Z,7.53
2017-08-16T10:46:31.054Z,9.00
2017-08-16T10:48:58.677Z,6.70
2017-08-16T10:51:26.239Z,9.07
2017-08-16T10:53:53.792Z,9.47
2017-08-16T10:56:21.381Z,7.70
2017-08-16T10:58:48.973Z,5.67
2017-08-16T11:01:16.555Z,8.93
2017-08-16T11:03:44.941Z,5.63
2017-08-16T11:06:12.486Z,6.13
2017-08-16T11:08:40.080Z,5.97
2017-08-16T11:11:07.672Z,8.90
2017-08-16T11:13:35.266Z,5.07
2017-08-16T11:16:03.090Z,5.70
2017-08-16T11:18:31.425Z,7.70
2017-08-16T11:20:59.934Z,5.60
2017-08-16T11:23:27.496Z,5.07
2017-08-16T11:25:55.046Z,6.47
2017-08-16T11:28:22.637Z,5.20
2017-08-16T11:30:50.201Z,4.97
2017-08-16T11:33:17.794Z,7.47
2017-08-16T11:35:45.356Z,9.97
2017-08-16T11:38:12.950Z,4.47
2017-08-16T11:40:40.542Z,6.80
2017-08-16T11:43:08.104Z,10.50
2017-08-16T11:45:35.698Z,4.00
2017-08-16T11:48:03.246Z,4.10
2017-08-16T11:50:30.794Z,4.40
2017-08-16T11:52:59.152Z,3.43
2017-08-16T11:55:26.715Z,6.03
2017-08-16T11:57:54.306Z,6.80
2017-08-16T12:00:21.869Z,4.43
2017-08-16T12:02:49.418Z,3.67
2017-08-16T12:05:17.010Z,4.93
2017-08-16T12:07:44.559Z,3.57
2017-08-16T12:10:12.142Z,5.53
2017-08-16T12:12:39.760Z,10.00
2017-08-16T12:15:07.347Z,3.97
2017-08-16T12:17:34.915Z,5.70
2017-08-16T12:20:02.508Z,6.17
2017-08-16T12:22:30.101Z,3.73
2017-08-16T12:24:57.662Z,4.30
2017-08-16T12:27:25.227Z,3.67
2017-08-16T12:29:52.821Z,5.30
2017-08-16T12:32:20.389Z,8.30
2017-08-16T12:34:48.036Z,3.50
2017-08-16T12:37:15.614Z,3.57
2017-08-16T12:39:43.175Z,4.50
2017-08-16T12:42:10.768Z,4.43
2017-08-16T12:44:39.112Z,4.13
2017-08-16T12:47:06.704Z,5.30
2017-08-16T12:49:35.025Z,4.50
2017-08-16T12:52:02.614Z,4.30
2017-08-16T12:54:30.158Z,6.17
2017-08-16T12:56:57.720Z,3.70
2017-08-16T12:59:25.298Z,3.10
2017-08-16T13:01:52.845Z,4.10
2017-08-16T13:04:20.439Z,6.53
2017-08-16T13:06:48.002Z,3.73
2017-08-16T13:09:16.360Z,3.70
2017-08-16T13:11:44.718Z,5.10
2017-08-16T13:14:12.312Z,5.47
2017-08-16T13:16:39.904Z,4.53
2017-08-16T13:19:07.446Z,8.20
2017-08-16T13:21:35.795Z,5.83
2017-08-16T13:24:03.347Z,5.53
2017-08-16T13:26:30.938Z,5.70
2017-08-16T13:28:59.262Z,6.27
2017-08-16T13:31:26.861Z,4.50
2017-08-16T13:33:54.418Z,4.20
2017-08-16T13:36:22.012Z,5.97
2017-08-16T13:38:50.323Z,3.30
2017-08-16T13:41:17.910Z,5.23
2017-08-16T13:43:45.497Z,20.43
2017-08-16T13:46:13.826Z,11.53
2017-08-16T13:48:41.416Z,14.70
2017-08-16T13:51:08.978Z,14.37
2017-08-16T13:53:36.586Z,9.73
2017-08-16T13:56:04.899Z,8.87
2017-08-16T13:58:32.468Z,13.57
2017-08-16T14:01:00.055Z,9.83
2017-08-16T14:03:28.382Z,8.70
2017-08-16T14:05:55.960Z,9.40
2017-08-16T14:08:23.517Z,9.73
2017-08-16T14:10:51.101Z,8.17
2017-08-16T14:13:18.671Z,10.63
2017-08-16T14:15:47.022Z,12.23
2017-08-16T14:18:15.353Z,10.77
2017-08-16T14:20:42.942Z,9.33
2017-08-16T14:23:10.507Z,8.83
2017-08-16T14:25:38.674Z,9.07
2017-08-16T14:28:06.712Z,19.67
2017-08-16T14:30:34.304Z,10.70
2017-08-16T14:33:01.866Z,8.00
2017-08-16T14:35:29.460Z,12.53
2017-08-16T14:37:57.023Z,7.97
2017-08-16T14:40:25.502Z,12.20
2017-08-16T14:42:53.066Z,12.00
2017-08-16T14:45:20.656Z,9.53
2017-08-16T14:47:48.220Z,8.60
2017-08-16T14:50:15.812Z,8.87
2017-08-16T14:52:43.365Z,9.50
2017-08-16T14:55:10.953Z,8.67
2017-08-16T14:57:38.576Z,7.30
2017-08-16T15:00:06.154Z,8.87
2017-08-16T15:02:34.662Z,8.63
2017-08-16T15:05:02.254Z,7.53
2017-08-16T15:07:29.803Z,7.37
2017-08-16T15:09:58.160Z,10.83
2017-08-16T15:12:25.723Z,9.73
2017-08-16T15:14:53.315Z,11.10
2017-08-16T15:17:20.878Z,9.00
2017-08-16T15:19:48.471Z,9.60
2017-08-16T15:22:16.034Z,7.17
2017-08-16T15:24:44.394Z,9.73
2017-08-16T15:27:12.044Z,11.37
2017-08-16T15:29:39.593Z,9.27
2017-08-16T15:32:07.171Z,10.20
2017-08-16T15:34:34.758Z,7.67
2017-08-16T15:37:02.312Z,8.03
2017-08-16T15:39:29.938Z,11.03
2017-08-16T15:41:57.482Z,7.90
2017-08-16T15:44:25.809Z,7.07
2017-08-16T15:46:57.588Z,10.67
2017-08-16T15:49:25.150Z,9.60
2017-08-16T15:51:52.729Z,7.00
2017-08-16T15:54:21.838Z,8.97
2017-08-16T15:56:50.165Z,10.20
2017-08-16T15:59:17.713Z,9.37
2017-08-16T16:01:45.311Z,8.57
2017-08-16T16:04:13.770Z,9.63
2017-08-16T16:06:41.362Z,8.20
2017-08-16T16:09:08.954Z,9.43
2017-08-16T16:11:36.577Z,8.80
2017-08-16T16:14:05.069Z,10.07
2017-08-16T16:16:33.158Z,10.87
2017-08-16T16:19:04.464Z,10.17
2017-08-16T16:21:32.048Z,10.73
2017-08-16T16:24:04.233Z,10.50
2017-08-16T16:26:32.966Z,8.83
2017-08-16T16:29:00.579Z,9.80
2017-08-16T16:31:28.266Z,12.27
2017-08-16T16:33:55.850Z,13.50
2017-08-16T16:36:24.241Z,9.20
2017-08-16T16:38:51.832Z,15.33
2017-08-16T16:41:20.160Z,9.00
2017-08-16T16:43:47.722Z,11.47
2017-08-16T16:46:15.315Z,9.43
2017-08-16T16:48:42.881Z,12.77
2017-08-16T16:51:11.356Z,8.50
2017-08-16T16:53:38.918Z,8.30
2017-08-16T16:56:06.481Z,10.60
2017-08-16T16:58:34.089Z,14.30
2017-08-16T17:01:01.651Z,10.90
2017-08-16T17:03:29.995Z,12.10
2017-08-16T17:06:00.566Z,10.33
2017-08-16T17:08:28.721Z,8.13
2017-08-16T17:10:56.529Z,8.70
2017-08-16T17:13:26.383Z,10.07
2017-08-16T17:15:55.205Z,9.00
2017-08-16T17:18:23.615Z,12.83
2017-08-16T17:20:51.175Z,10.30
2017-08-16T17:23:18.771Z,11.40
2017-08-16T17:25:47.093Z,11.47
2017-08-16T17:28:15.541Z,9.87
2017-08-16T17:30:43.132Z,14.93
2017-08-16T17:33:10.726Z,9.43
2017-08-16T17:35:38.355Z,9.20
2017-08-16T17:38:05.924Z,14.17
2017-08-16T17:40:33.505Z,7.80
2017-08-16T17:43:01.113Z,9.30
2017-08-16T17:45:28.681Z,10.63
2017-08-16T17:47:56.240Z,8.63
2017-08-16T17:50:24.061Z,9.53
2017-08-16T17:52:52.451Z,9.17
2017-08-16T17:55:21.830Z,11.40
2017-08-16T17:57:50.391Z,9.60
2017-08-16T18:00:17.940Z,8.03
2017-08-16T18:02:45.548Z,9.37
2017-08-16T18:05:13.110Z,11.37
2017-08-16T18:07:40.704Z,7.60
2017-08-16T18:10:08.733Z,8.23
2017-08-16T18:12:36.324Z,9.60
2017-08-16T18:15:03.922Z,8.53
2017-08-16T18:17:31.481Z,8.63
2017-08-16T18:19:59.928Z,8.33
2017-08-16T18:22:27.476Z,8.37
2017-08-16T18:24:55.834Z,10.37
2017-08-16T18:27:23.501Z,11.03
2017-08-16T18:29:53.239Z,10.23
2017-08-16T18:32:24.469Z,9.80
2017-08-16T18:34:53.519Z,8.17
2017-08-16T18:37:21.906Z,10.10
2017-08-16T18:39:49.654Z,10.73
2017-08-16T18:42:17.211Z,8.90
2017-08-16T18:44:56.739Z,7.20
2017-08-16T18:47:26.241Z,10.00
2017-08-16T18:49:53.844Z,9.00
2017-08-16T18:52:22.247Z,7.97
2017-08-16T18:54:50.697Z,8.17
2017-08-16T18:57:18.416Z,14.10
2017-08-16T18:59:46.005Z,9.23
2017-08-16T19:02:14.849Z,11.73
2017-08-16T19:04:43.180Z,12.53
2017-08-16T19:07:12.138Z,11.40
2017-08-16T19:09:40.449Z,9.83
2017-08-16T19:12:08.842Z,9.00
2017-08-16T19:14:36.922Z,10.17
2017-08-16T19:17:04.544Z,11.23
2017-08-16T19:19:34.570Z,9.27
2017-08-16T19:22:04.427Z,9.23
2017-08-16T19:24:34.158Z,14.00
2017-08-16T19:27:03.189Z,11.17
2017-08-16T19:29:31.173Z,10.53
2017-08-16T19:31:58.837Z,11.03
2017-08-16T19:34:28.109Z,10.57
2017-08-16T19:36:56.033Z,13.00
2017-08-16T19:39:24.428Z,10.70
2017-08-16T19:41:53.548Z,11.17
2017-08-16T19:44:21.119Z,15.80
2017-08-16T19:46:50.217Z,11.40
2017-08-16T19:49:17.973Z,9.93
2017-08-16T19:51:45.586Z,15.57
2017-08-16T19:54:13.256Z,10.23
2017-08-16T19:56:41.581Z,14.53
2017-08-16T19:59:09.156Z,13.47
2017-08-16T20:01:37.572Z,10.57
2017-08-16T20:04:05.953Z,17.83
2017-08-16T20:06:35.448Z,12.10
2017-08-16T20:09:03.100Z,13.10
2017-08-16T20:11:30.784Z,14.10
2017-08-16T20:13:59.688Z,12.60
2017-08-16T20:16:28.041Z,13.73
2017-08-16T20:18:56.249Z,14.03
2017-08-16T20:21:23.814Z,16.37
2017-08-16T20:23:52.507Z,11.23
2017-08-16T20:26:20.109Z,15.03
2017-08-16T20:28:47.687Z,15.90
2017-08-16T20:31:15.895Z,12.30
2017-08-16T20:33:43.473Z,12.03
2017-08-16T20:36:11.086Z,14.30
2017-08-16T20:38:38.674Z,15.53
2017-08-16T20:41:06.603Z,13.03
2017-08-16T20:43:34.297Z,18.97
2017-08-16T20:46:01.919Z,13.67
2017-08-16T20:48:31.553Z,15.10
2017-08-16T20:50:59.842Z,14.33
2017-08-16T20:53:27.413Z,14.17
2017-08-16T20:55:55.616Z,12.97
2017-08-16T20:58:25.153Z,14.17
2017-08-16T21:00:52.771Z,17.97
2017-08-16T21:03:20.669Z,16.30
2017-08-16T21:05:48.259Z,13.40
2017-08-16T21:08:15.851Z,17.53
2017-08-16T21:10:43.437Z,21.73
2017-08-16T21:13:10.996Z,14.73
2017-08-16T21:15:38.584Z,17.40
2017-08-16T21:18:06.177Z,17.13
2017-08-16T21:20:33.769Z,25.67
2017-08-16T21:23:01.918Z,17.47
2017-08-16T21:25:29.517Z,16.80
2017-08-16T21:27:57.074Z,23.37
2017-08-16T21:30:24.667Z,18.30
2017-08-16T21:32:53.038Z,14.17
2017-08-16T21:35:21.548Z,19.10
2017-08-16T21:37:49.109Z,16.70
2017-08-16T21:40:16.722Z,17.53
2017-08-16T21:42:44.280Z,15.57
2017-08-16T21:45:11.856Z,15.00
2017-08-16T21:47:39.470Z,19.10
2017-08-16T21:50:07.029Z,19.37
2017-08-16T21:52:34.622Z,21.73
2017-08-16T21:55:02.220Z,15.83
2017-08-16T21:57:29.777Z,18.00
2017-08-16T21:59:59.157Z,19.70
2017-08-16T22:02:27.515Z,17.43
2017-08-16T22:04:55.128Z,19.47
2017-08-16T22:07:23.455Z,19.80
2017-08-16T22:09:51.013Z,19.93
2017-08-16T22:12:18.611Z,17.77
2017-08-16T22:14:46.514Z,18.20
2017-08-16T22:17:14.106Z,16.63
2017-08-16T22:19:41.695Z,20.23
2017-08-16T22:22:09.292Z,19.17
2017-08-16T22:24:36.855Z,19.07
2017-08-16T22:27:04.967Z,18.37
2017-08-16T22:29:33.360Z,20.80
2017-08-16T22:32:00.924Z,16.47
2017-08-16T22:34:28.517Z,22.17
2017-08-16T22:36:57.776Z,18.53
2017-08-16T22:39:25.382Z,21.37
2017-08-16T22:41:52.945Z,18.70
2017-08-16T22:44:20.507Z,20.83
2017-08-16T22:46:48.105Z,19.93
2017-08-16T22:49:15.663Z,19.80
2017-08-16T22:51:43.259Z,25.30
2017-08-16T22:54:11.584Z,20.40
2017-08-16T22:56:39.149Z,19.10
2017-08-16T22:59:06.741Z,22.40
2017-08-16T23:01:34.304Z,31.63
2017-08-16T23:04:01.898Z,15.83
2017-08-16T23:06:29.459Z,17.53
2017-08-16T23:08:57.051Z,17.83
2017-08-16T23:11:24.635Z,20.60
2017-08-16T23:13:52.192Z,16.53
2017-08-16T23:16:19.786Z,18.40
2017-08-16T23:18:47.348Z,16.63
2017-08-16T23:21:14.948Z,21.03
2017-08-16T23:23:42.505Z,16.23
2017-08-16T23:26:10.096Z,18.10
2017-08-16T23:34:34.778Z,18.33
2017-08-16T23:37:02.313Z,18.90
2017-08-16T23:39:29.886Z,18.77
2017-08-16T23:41:57.425Z,17.20
2017-08-16T23:44:25.015Z,15.90
2017-08-16T23:46:52.583Z,20.40
2017-08-16T23:49:20.161Z,20.70
2017-08-16T23:51:47.710Z,17.87
2017-08-16T23:54:15.290Z,17.57
2017-08-16T23:56:43.606Z,16.60
2017-08-16T23:59:11.146Z,17.10
